Time;durP1;ratioP1;P1;durP2;ratioP2;P2;SDS_P1;SDS_P2;PMS_P1;PMS_P2;Temp;Humidity;BMP_temperature;BMP_pressure;BME280_temperature;BME280_humidity;BME280_pressure;Samples;Min_cycle;Max_cycle;Signal;HPM_P1;HPM_P2
2022/11/02 00:00:19;;;;;;;;;;;7.90;99.90;;;;;;1966767;72;20131;-75
2022/11/02 00:02:46;;;;;;;;;;;7.80;99.90;;;;;;1976308;72;20148;-76
2022/11/02 00:05:13;;;;;;;;;;;7.80;99.90;;;;;;1969004;72;20265;-75
2022/11/02 00:07:40;;;;;;;;;;;7.80;99.90;;;;;;1978377;72;20107;-76
2022/11/02 00:10:07;;;;;;;;;;;7.80;99.90;;;;;;1969082;72;20110;-76
2022/11/02 00:12:33;;;;;;;;;;;7.70;99.90;;;;;;1969915;72;20396;-76
2022/11/02 00:15:00;;;;;;;;;;;7.70;99.90;;;;;;1977323;72;20122;-76
2022/11/02 00:17:27;;;;;;;;;;;7.70;99.90;;;;;;1977188;72;20163;-76
2022/11/02 00:19:54;;;;;;;;;;;7.60;99.90;;;;;;1971613;72;20193;-75
2022/11/02 00:22:21;;;;;;;;;;;7.60;99.90;;;;;;1978465;72;20117;-77
2022/11/02 00:24:47;;;;;;;;;;;7.60;99.90;;;;;;1932548;72;20123;-75
2022/11/02 00:27:16;;;;;;;;;;;7.60;99.90;;;;;;1971206;72;20148;-74
2022/11/02 00:29:42;;;;;;;;;;;7.60;99.90;;;;;;1974502;72;20174;-75
2022/11/02 00:32:09;;;;;;;;;;;7.60;99.90;;;;;;1973681;72;20121;-76
2022/11/02 00:34:39;;;;;;;;;;;7.50;99.90;;;;;;1973590;72;20203;-76
2022/11/02 00:37:04;;;;;;;;;;;7.50;99.90;;;;;;1970680;72;20120;-76
2022/11/02 00:39:31;;;;;;;;;;;7.50;99.90;;;;;;1969649;72;20159;-76
2022/11/02 00:41:57;;;;;;;;;;;7.50;99.90;;;;;;1977912;72;20184;-76
2022/11/02 00:44:24;;;;;;;;;;;7.50;99.90;;;;;;1967903;72;20222;-76
2022/11/02 00:46:51;;;;;;;;;;;7.50;99.90;;;;;;1970425;72;20141;-76
2022/11/02 00:49:18;;;;;;;;;;;7.50;99.90;;;;;;1967820;72;20170;-76
2022/11/02 00:51:45;;;;;;;;;;;7.50;99.90;;;;;;1976090;72;20144;-76
2022/11/02 00:54:11;;;;;;;;;;;7.50;99.90;;;;;;1973002;72;20121;-77
2022/11/02 00:56:38;;;;;;;;;;;7.40;99.90;;;;;;1973024;72;20188;-76
2022/11/02 00:59:05;;;;;;;;;;;7.40;99.90;;;;;;1978061;72;20121;-76
2022/11/02 01:01:32;;;;;;;;;;;7.40;99.90;;;;;;1967071;72;20122;-76
2022/11/02 01:03:58;;;;;;;;;;;7.40;99.90;;;;;;1969091;72;20118;-76
2022/11/02 01:06:25;;;;;;;;;;;7.40;99.90;;;;;;1966683;72;20147;-77
2022/11/02 01:08:52;;;;;;;;;;;7.40;99.90;;;;;;1973428;72;20196;-78
2022/11/02 01:11:20;;;;;;;;;;;7.40;99.90;;;;;;1974998;72;20400;-76
2022/11/02 01:13:46;;;;;;;;;;;7.30;99.90;;;;;;1976799;72;20111;-75
2022/11/02 01:16:13;;;;;;;;;;;7.40;99.90;;;;;;1966702;72;20121;-75
2022/11/02 01:18:40;;;;;;;;;;;7.40;99.90;;;;;;1969558;72;20389;-75
2022/11/02 01:21:07;;;;;;;;;;;7.40;99.90;;;;;;1968509;72;20173;-75
2022/11/02 01:23:33;;;;;;;;;;;7.30;99.90;;;;;;1971343;72;20101;-75
2022/11/02 01:26:05;;;;;;;;;;;7.30;99.90;;;;;;1963989;72;20114;-75
2022/11/02 01:28:31;;;;;;;;;;;7.40;99.90;;;;;;1969356;72;20117;-74
2022/11/02 01:30:58;;;;;;;;;;;7.30;99.90;;;;;;1975295;72;20113;-76
2022/11/02 01:33:26;;;;;;;;;;;7.30;99.90;;;;;;1975716;72;20163;-76
2022/11/02 01:35:53;;;;;;;;;;;7.30;99.90;;;;;;1967238;72;20199;-76
2022/11/02 01:38:19;;;;;;;;;;;7.30;99.90;;;;;;1974001;72;20117;-76
2022/11/02 01:40:46;;;;;;;;;;;7.40;99.90;;;;;;1969700;72;20251;-76
2022/11/02 01:43:20;;;;;;;;;;;7.30;99.90;;;;;;1973422;72;20122;-77
2022/11/02 01:45:47;;;;;;;;;;;7.30;99.90;;;;;;1963269;72;20114;-76
2022/11/02 01:48:14;;;;;;;;;;;7.40;99.90;;;;;;1971087;72;20185;-76
2022/11/02 01:50:40;;;;;;;;;;;7.30;99.90;;;;;;1973069;72;20117;-76
2022/11/02 01:53:07;;;;;;;;;;;7.30;99.90;;;;;;1976366;72;20148;-76
2022/11/02 01:55:34;;;;;;;;;;;7.40;99.90;;;;;;1963797;72;20124;-76
2022/11/02 01:58:02;;;;;;;;;;;7.40;99.90;;;;;;1977467;72;20113;-77
2022/11/02 02:00:29;;;;;;;;;;;7.30;99.90;;;;;;1971881;72;20158;-77
2022/11/02 02:03:03;;;;;;;;;;;7.40;99.90;;;;;;1976027;72;20117;-76
2022/11/02 02:05:30;;;;;;;;;;;7.40;99.90;;;;;;1972527;72;20117;-76
2022/11/02 02:07:57;;;;;;;;;;;7.40;99.90;;;;;;1977125;72;20321;-77
2022/11/02 02:10:23;;;;;;;;;;;7.40;99.90;;;;;;1975559;72;20152;-77
2022/11/02 02:12:50;;;;;;;;;;;7.40;99.90;;;;;;1968364;72;20359;-76
2022/11/02 02:15:17;;;;;;;;;;;7.40;99.90;;;;;;1967156;72;20116;-77
2022/11/02 02:17:48;;;;;;;;;;;7.40;99.90;;;;;;1970060;72;20149;-77
2022/11/02 02:20:26;;;;;;;;;;;7.40;99.90;;;;;;1976498;72;20107;-76
2022/11/02 02:23:00;;;;;;;;;;;7.40;99.90;;;;;;1938592;72;20208;-76
2022/11/02 02:25:47;;;;;;;;;;;7.50;99.90;;;;;;1966589;72;20159;-76
2022/11/02 02:28:27;;;;;;;;;;;7.40;99.90;;;;;;1972592;72;20377;-74
2022/11/02 02:31:01;;;;;;;;;;;7.30;99.90;;;;;;1973802;72;20122;-77
2022/11/02 02:33:39;;;;;;;;;;;7.30;99.90;;;;;;1967926;72;20159;-76
2022/11/02 02:36:19;;;;;;;;;;;7.20;99.90;;;;;;1970760;72;20188;-75
2022/11/02 02:38:49;;;;;;;;;;;7.20;99.90;;;;;;1975346;72;20114;-76
2022/11/02 02:41:30;;;;;;;;;;;7.30;99.90;;;;;;1974747;72;20349;-75
2022/11/02 02:43:57;;;;;;;;;;;7.30;99.90;;;;;;1973262;72;20122;-76
2022/11/02 02:46:25;;;;;;;;;;;7.30;99.90;;;;;;1972447;72;20187;-77
2022/11/02 02:48:52;;;;;;;;;;;7.30;99.90;;;;;;1972032;72;20144;-75
2022/11/02 02:51:20;;;;;;;;;;;7.30;99.90;;;;;;1970181;72;20342;-75
2022/11/02 02:53:50;;;;;;;;;;;7.30;99.90;;;;;;1962017;72;20452;-76
2022/11/02 02:56:17;;;;;;;;;;;7.30;99.90;;;;;;1975301;72;20446;-76
2022/11/02 02:58:46;;;;;;;;;;;7.30;99.90;;;;;;1975697;72;20113;-76
2022/11/02 03:01:12;;;;;;;;;;;7.20;99.90;;;;;;1978283;72;20102;-76
2022/11/02 03:03:40;;;;;;;;;;;7.30;99.90;;;;;;1962908;72;20119;-76
2022/11/02 03:06:08;;;;;;;;;;;7.30;99.90;;;;;;1971167;72;20117;-76
2022/11/02 03:08:36;;;;;;;;;;;7.30;99.90;;;;;;1964312;72;20127;-76
2022/11/02 03:11:04;;;;;;;;;;;7.30;99.90;;;;;;1974094;72;20165;-76
2022/11/02 03:13:35;;;;;;;;;;;7.30;99.90;;;;;;1969520;72;20126;-76
2022/11/02 03:16:02;;;;;;;;;;;7.20;99.90;;;;;;1977264;72;20148;-75
2022/11/02 03:18:31;;;;;;;;;;;7.20;99.90;;;;;;1974924;72;20144;-76
2022/11/02 03:20:59;;;;;;;;;;;7.30;99.90;;;;;;1968663;72;20117;-76
2022/11/02 03:23:31;;;;;;;;;;;7.30;99.90;;;;;;1972479;72;20180;-76
2022/11/02 03:26:02;;;;;;;;;;;7.20;99.90;;;;;;1964792;72;20118;-76
2022/11/02 03:28:34;;;;;;;;;;;7.30;99.90;;;;;;1969545;72;20176;-76
2022/11/02 03:31:02;;;;;;;;;;;7.30;99.90;;;;;;1966814;72;20173;-76
2022/11/02 03:33:30;;;;;;;;;;;7.30;99.90;;;;;;1962363;72;20195;-76
2022/11/02 03:36:05;;;;;;;;;;;7.30;99.90;;;;;;1975089;72;20160;-76
2022/11/02 03:38:34;;;;;;;;;;;7.20;99.90;;;;;;1978009;72;20302;-76
2022/11/02 03:41:00;;;;;;;;;;;7.30;99.90;;;;;;1972823;72;20329;-76
2022/11/02 03:43:27;;;;;;;;;;;7.30;99.90;;;;;;1970693;72;20109;-76
2022/11/02 03:45:54;;;;;;;;;;;7.10;99.90;;;;;;1968593;72;20309;-75
2022/11/02 03:48:22;;;;;;;;;;;7.00;99.90;;;;;;1972518;72;20121;-76
2022/11/02 03:50:49;;;;;;;;;;;7.10;99.90;;;;;;1968853;72;20118;-75
2022/11/02 03:53:33;;;;;;;;;;;7.20;99.90;;;;;;1970772;72;20341;-75
2022/11/02 03:56:01;;;;;;;;;;;7.30;99.90;;;;;;1970527;72;20332;-76
2022/11/02 03:58:28;;;;;;;;;;;7.40;99.90;;;;;;1962134;72;20116;-76
2022/11/02 04:00:58;;;;;;;;;;;7.40;99.90;;;;;;1968898;72;20325;-76
2022/11/02 04:03:25;;;;;;;;;;;7.30;99.90;;;;;;1976276;72;20110;-75
2022/11/02 04:05:51;;;;;;;;;;;7.20;99.90;;;;;;1973928;72;20328;-76
2022/11/02 04:08:20;;;;;;;;;;;7.40;99.90;;;;;;1975663;72;20103;-76
2022/11/02 04:16:16;;;;;;;;;;;7.30;99.90;;;;;;1973678;72;20118;-76
2022/11/02 04:21:28;;;;;;;;;;;7.40;99.90;;;;;;1969885;72;20333;-76
2022/11/02 04:26:39;;;;;;;;;;;7.40;99.90;;;;;;1977052;72;20114;-74
2022/11/02 04:29:06;;;;;;;;;;;7.40;99.90;;;;;;1973443;72;20320;-76
2022/11/02 04:31:33;;;;;;;;;;;7.40;99.90;;;;;;1977275;72;20114;-76
2022/11/02 04:34:00;;;;;;;;;;;7.40;99.90;;;;;;1973913;72;20105;-76
2022/11/02 04:36:31;;;;;;;;;;;7.40;99.90;;;;;;1975717;72;20372;-77
2022/11/02 04:38:58;;;;;;;;;;;7.40;99.90;;;;;;1972111;72;20160;-76
2022/11/02 04:41:43;;;;;;;;;;;7.30;99.90;;;;;;1969754;72;20106;-73
2022/11/02 04:44:10;;;;;;;;;;;7.40;99.90;;;;;;1968893;72;20145;-74
2022/11/02 04:46:37;;;;;;;;;;;7.30;99.90;;;;;;1975101;72;20122;-75
2022/11/02 04:49:04;;;;;;;;;;;7.30;99.90;;;;;;1974537;72;20214;-75
2022/11/02 04:51:32;;;;;;;;;;;7.40;99.90;;;;;;1977941;72;20286;-75
2022/11/02 04:53:58;;;;;;;;;;;7.30;99.90;;;;;;1973828;72;20173;-75
2022/11/02 04:56:25;;;;;;;;;;;7.20;99.90;;;;;;1971763;72;20319;-75
2022/11/02 04:58:53;;;;;;;;;;;7.20;99.90;;;;;;1966748;72;20191;-74
2022/11/02 05:01:20;;;;;;;;;;;7.20;99.90;;;;;;1966270;72;20117;-75
2022/11/02 05:03:51;;;;;;;;;;;7.10;99.90;;;;;;1969254;72;20117;-75
2022/11/02 05:06:16;;;;;;;;;;;7.00;99.90;;;;;;1962124;72;20263;-75
2022/11/02 05:08:42;;;;;;;;;;;7.00;99.90;;;;;;1972250;72;20144;-75
2022/11/02 05:11:09;;;;;;;;;;;6.90;99.90;;;;;;1967392;72;20125;-75
2022/11/02 05:13:36;;;;;;;;;;;7.00;99.90;;;;;;1969594;72;20160;-75
2022/11/02 05:16:03;;;;;;;;;;;7.00;99.90;;;;;;1974748;72;20153;-76
2022/11/02 05:18:30;;;;;;;;;;;7.00;99.90;;;;;;1974943;72;20117;-75
2022/11/02 05:20:57;;;;;;;;;;;6.90;99.90;;;;;;1978046;72;20361;-76
2022/11/02 05:23:24;;;;;;;;;;;6.90;99.90;;;;;;1972464;72;20551;-76
2022/11/02 05:25:57;;;;;;;;;;;6.90;99.90;;;;;;1969776;72;20111;-75
2022/11/02 05:28:25;;;;;;;;;;;6.90;99.90;;;;;;1976256;72;20345;-75
2022/11/02 05:30:51;;;;;;;;;;;6.90;99.90;;;;;;1971124;72;20160;-75
2022/11/02 05:33:18;;;;;;;;;;;6.90;99.90;;;;;;1970180;72;20121;-75
2022/11/02 05:35:45;;;;;;;;;;;6.80;99.90;;;;;;1976168;72;20222;-75
2022/11/02 05:38:11;;;;;;;;;;;6.70;99.90;;;;;;1968590;72;20332;-76
2022/11/02 05:40:39;;;;;;;;;;;6.70;99.90;;;;;;1966661;72;20191;-76
2022/11/02 05:43:07;;;;;;;;;;;6.70;99.90;;;;;;1967227;72;20147;-74
2022/11/02 05:45:38;;;;;;;;;;;6.70;99.90;;;;;;1978990;72;20145;-75
2022/11/02 05:48:02;;;;;;;;;;;6.60;99.90;;;;;;1966945;72;20212;-75
2022/11/02 05:50:29;;;;;;;;;;;6.70;99.90;;;;;;1972605;72;20121;-75
2022/11/02 05:52:56;;;;;;;;;;;6.70;99.90;;;;;;1966638;72;20469;-75
2022/11/02 05:55:23;;;;;;;;;;;6.70;99.90;;;;;;1975559;72;20117;-75
2022/11/02 05:57:54;;;;;;;;;;;6.70;99.90;;;;;;1967928;72;20102;-75
2022/11/02 06:00:21;;;;;;;;;;;6.70;99.90;;;;;;1968562;72;20119;-75
2022/11/02 06:02:48;;;;;;;;;;;6.70;99.90;;;;;;1975846;72;20183;-75
2022/11/02 06:05:14;;;;;;;;;;;6.80;99.90;;;;;;1973442;72;20362;-74
2022/11/02 06:07:41;;;;;;;;;;;6.70;99.90;;;;;;1973027;72;20171;-75
2022/11/02 06:10:08;;;;;;;;;;;6.70;99.90;;;;;;1976681;72;20160;-75
2022/11/02 06:12:35;;;;;;;;;;;6.70;99.90;;;;;;1969662;72;20191;-76
2022/11/02 06:15:01;;;;;;;;;;;6.70;99.90;;;;;;1971503;72;20171;-75
2022/11/02 06:17:28;;;;;;;;;;;6.60;99.90;;;;;;1976301;72;20133;-75
2022/11/02 06:19:55;;;;;;;;;;;6.70;99.90;;;;;;1976720;72;20151;-75
2022/11/02 06:22:21;;;;;;;;;;;6.70;99.90;;;;;;1977879;72;20154;-75
2022/11/02 06:24:48;;;;;;;;;;;6.80;99.90;;;;;;1971694;72;20118;-75
2022/11/02 06:27:16;;;;;;;;;;;6.80;99.90;;;;;;1974548;72;20144;-76
2022/11/02 06:29:43;;;;;;;;;;;6.90;99.90;;;;;;1966663;72;20147;-75
2022/11/02 06:32:09;;;;;;;;;;;6.90;99.90;;;;;;1969510;72;20117;-75
2022/11/02 06:34:36;;;;;;;;;;;6.80;99.90;;;;;;1968399;72;20114;-75
2022/11/02 06:37:03;;;;;;;;;;;6.90;99.90;;;;;;1973468;72;20117;-76
2022/11/02 06:39:29;;;;;;;;;;;7.00;99.90;;;;;;1975417;72;20185;-76
2022/11/02 06:41:56;;;;;;;;;;;7.00;99.90;;;;;;1967735;72;20234;-75
2022/11/02 06:44:23;;;;;;;;;;;7.00;99.90;;;;;;1972663;72;20362;-75
2022/11/02 06:46:52;;;;;;;;;;;7.10;99.90;;;;;;1968571;72;20151;-75
2022/11/02 06:49:19;;;;;;;;;;;7.10;99.90;;;;;;1970598;72;20333;-74
2022/11/02 06:51:46;;;;;;;;;;;7.10;99.90;;;;;;1974687;72;20125;-74
2022/11/02 06:54:13;;;;;;;;;;;7.20;99.90;;;;;;1973812;72;20237;-75
2022/11/02 06:56:40;;;;;;;;;;;7.30;99.90;;;;;;1972638;72;20163;-75
2022/11/02 06:59:07;;;;;;;;;;;7.50;99.90;;;;;;1965575;72;20109;-75
2022/11/02 07:01:33;;;;;;;;;;;7.50;99.90;;;;;;1964056;72;20106;-75
2022/11/02 07:04:01;;;;;;;;;;;7.70;99.90;;;;;;1972536;72;20361;-75
2022/11/02 07:06:28;;;;;;;;;;;7.70;99.90;;;;;;1971556;72;20397;-75
2022/11/02 07:08:54;;;;;;;;;;;7.70;99.90;;;;;;1967711;72;20156;-75
2022/11/02 07:11:21;;;;;;;;;;;7.80;99.90;;;;;;1972743;72;20380;-75
2022/11/02 07:13:48;;;;;;;;;;;7.80;99.90;;;;;;1976755;72;20118;-75
2022/11/02 07:16:15;;;;;;;;;;;8.00;99.90;;;;;;1972546;72;20264;-75
2022/11/02 07:18:41;;;;;;;;;;;8.10;99.90;;;;;;1970431;72;20117;-75
2022/11/02 07:21:10;;;;;;;;;;;8.30;99.90;;;;;;1974697;72;20144;-75
2022/11/02 07:23:37;;;;;;;;;;;8.40;99.90;;;;;;1979025;72;20172;-75
2022/11/02 07:26:04;;;;;;;;;;;8.50;99.90;;;;;;1969895;72;20106;-75
2022/11/02 07:28:30;;;;;;;;;;;8.50;99.90;;;;;;1961663;72;20415;-75
2022/11/02 07:30:57;;;;;;;;;;;8.50;99.90;;;;;;1976075;72;20102;-75
2022/11/02 07:33:24;;;;;;;;;;;8.60;99.90;;;;;;1974799;72;20381;-75
2022/11/02 07:35:50;;;;;;;;;;;8.60;99.90;;;;;;1975537;72;20153;-75
2022/11/02 07:38:17;;;;;;;;;;;8.90;99.90;;;;;;1967574;72;20317;-75
2022/11/02 07:40:44;;;;;;;;;;;9.00;99.90;;;;;;1971372;72;20110;-75
2022/11/02 07:43:10;;;;;;;;;;;8.90;99.90;;;;;;1928958;72;20358;-75
2022/11/02 07:45:37;;;;;;;;;;;8.70;99.90;;;;;;1974336;72;20106;-75
2022/11/02 07:48:04;;;;;;;;;;;8.80;99.90;;;;;;1967162;72;20486;-75
2022/11/02 07:50:30;;;;;;;;;;;8.80;99.90;;;;;;1970157;72;20110;-74
2022/11/02 07:52:57;;;;;;;;;;;8.80;99.90;;;;;;1971303;72;20337;-74
2022/11/02 07:55:25;;;;;;;;;;;9.00;99.90;;;;;;1976872;72;20138;-75
2022/11/02 07:57:53;;;;;;;;;;;9.20;99.90;;;;;;1976691;72;20113;-75
2022/11/02 08:00:20;;;;;;;;;;;9.20;99.90;;;;;;1971343;72;20354;-74
2022/11/02 08:02:46;;;;;;;;;;;9.20;99.90;;;;;;1966647;72;20128;-74
2022/11/02 08:05:13;;;;;;;;;;;9.50;99.90;;;;;;1969579;72;20144;-74
2022/11/02 08:07:40;;;;;;;;;;;9.60;99.90;;;;;;1970658;72;20110;-74
2022/11/02 08:10:07;;;;;;;;;;;9.90;99.90;;;;;;1972848;72;20204;-74
2022/11/02 08:12:33;;;;;;;;;;;9.90;99.90;;;;;;1972500;72;20363;-74
2022/11/02 08:15:00;;;;;;;;;;;9.80;99.90;;;;;;1968266;72;20145;-74
2022/11/02 08:17:27;;;;;;;;;;;9.80;99.90;;;;;;1974283;72;20357;-74
2022/11/02 08:19:53;;;;;;;;;;;9.80;99.90;;;;;;1975715;72;20125;-73
2022/11/02 08:22:20;;;;;;;;;;;9.90;99.90;;;;;;1974775;72;20347;-74
2022/11/02 08:24:47;;;;;;;;;;;10.00;99.90;;;;;;1972140;72;20144;-75
2022/11/02 08:27:14;;;;;;;;;;;10.10;99.90;;;;;;1972683;72;20314;-75
2022/11/02 08:29:40;;;;;;;;;;;10.20;99.90;;;;;;1969209;72;20111;-74
2022/11/02 08:32:07;;;;;;;;;;;10.40;99.90;;;;;;1975386;72;20403;-73
2022/11/02 08:34:34;;;;;;;;;;;10.60;99.90;;;;;;1968097;72;20118;-73
2022/11/02 08:37:00;;;;;;;;;;;10.80;99.90;;;;;;1967152;72;20341;-73
2022/11/02 08:39:28;;;;;;;;;;;10.80;99.90;;;;;;1970819;72;20122;-72
2022/11/02 08:41:54;;;;;;;;;;;10.90;99.90;;;;;;1974633;72;20122;-73
2022/11/02 08:44:21;;;;;;;;;;;11.10;99.90;;;;;;1973739;72;20284;-72
2022/11/02 08:46:48;;;;;;;;;;;11.40;99.90;;;;;;1976834;72;20306;-74
2022/11/02 08:49:17;;;;;;;;;;;11.80;99.90;;;;;;1970374;72;20102;-73
2022/11/02 08:51:44;;;;;;;;;;;11.90;99.90;;;;;;1978001;72;20143;-74
2022/11/02 08:54:11;;;;;;;;;;;12.10;99.90;;;;;;1975167;72;20357;-73
2022/11/02 08:56:38;;;;;;;;;;;12.20;99.90;;;;;;1964777;72;20353;-73
2022/11/02 08:59:05;;;;;;;;;;;12.40;99.90;;;;;;1976024;72;20161;-74
2022/11/02 09:01:31;;;;;;;;;;;12.60;99.90;;;;;;1972939;72;20118;-74
2022/11/02 09:03:58;;;;;;;;;;;12.50;99.90;;;;;;1970479;72;20194;-74
2022/11/02 09:06:25;;;;;;;;;;;12.70;99.90;;;;;;1971020;72;20161;-73
2022/11/02 09:08:51;;;;;;;;;;;12.50;99.90;;;;;;1974953;72;20328;-74
2022/11/02 09:11:18;;;;;;;;;;;12.60;99.90;;;;;;1968640;72;20220;-73
2022/11/02 09:13:45;;;;;;;;;;;12.70;99.90;;;;;;1975653;72;20360;-73
2022/11/02 09:16:12;;;;;;;;;;;12.80;99.90;;;;;;1971756;72;20102;-73
2022/11/02 09:18:39;;;;;;;;;;;13.10;99.90;;;;;;1973597;72;20198;-74
2022/11/02 09:21:05;;;;;;;;;;;13.00;99.90;;;;;;1967654;72;20101;-74
2022/11/02 09:23:33;;;;;;;;;;;12.90;99.90;;;;;;1966736;72;20116;-73
2022/11/02 09:25:59;;;;;;;;;;;12.90;99.90;;;;;;1970311;72;20156;-73
2022/11/02 09:28:26;;;;;;;;;;;12.90;99.90;;;;;;1972947;72;20113;-74
2022/11/02 09:30:53;;;;;;;;;;;12.90;99.90;;;;;;1976111;72;20338;-75
2022/11/02 09:33:19;;;;;;;;;;;13.10;99.90;;;;;;1962334;72;20181;-73
2022/11/02 09:35:47;;;;;;;;;;;13.20;99.90;;;;;;1975120;72;20205;-74
2022/11/02 09:38:13;;;;;;;;;;;13.30;99.90;;;;;;1974081;72;20168;-75
2022/11/02 09:40:44;;;;;;;;;;;13.40;99.90;;;;;;1967379;72;20172;-74
2022/11/02 09:43:19;;;;;;;;;;;13.60;99.90;;;;;;1977173;72;20144;-74
2022/11/02 09:45:47;;;;;;;;;;;13.70;99.90;;;;;;1974717;72;20214;-74
2022/11/02 09:48:16;;;;;;;;;;;13.90;99.90;;;;;;1967903;72;20128;-75
2022/11/02 09:50:47;;;;;;;;;;;14.10;99.90;;;;;;1966596;72;20325;-74
2022/11/02 09:53:16;;;;;;;;;;;14.40;99.90;;;;;;1976388;72;20168;-75
2022/11/02 09:55:44;;;;;;;;;;;14.60;99.90;;;;;;1972769;72;20332;-74
2022/11/02 09:58:12;;;;;;;;;;;14.50;99.90;;;;;;1964676;72;20202;-74
2022/11/02 10:00:39;;;;;;;;;;;14.80;99.90;;;;;;1969699;72;20190;-75
2022/11/02 10:03:11;;;;;;;;;;;14.90;99.90;;;;;;1972078;72;20121;-74
2022/11/02 10:05:45;;;;;;;;;;;15.00;99.90;;;;;;1966391;72;20180;-74
2022/11/02 10:08:25;;;;;;;;;;;15.10;99.90;;;;;;1968610;72;20123;-74
2022/11/02 10:11:05;;;;;;;;;;;15.20;99.90;;;;;;1965389;72;20194;-75
2022/11/02 10:13:39;;;;;;;;;;;15.40;99.90;;;;;;1978207;72;20115;-74
2022/11/02 10:16:14;;;;;;;;;;;15.10;99.90;;;;;;1975703;72;20172;-74
2022/11/02 10:18:41;;;;;;;;;;;15.20;99.90;;;;;;1921249;72;20348;-73
2022/11/02 10:21:08;;;;;;;;;;;15.00;99.90;;;;;;1972609;72;20148;-73
2022/11/02 10:23:36;;;;;;;;;;;15.00;99.90;;;;;;1970716;72;20192;-73
2022/11/02 10:26:03;;;;;;;;;;;15.20;99.90;;;;;;1969373;72;20128;-75
2022/11/02 10:28:31;;;;;;;;;;;15.30;99.90;;;;;;1969909;72;20117;-75
2022/11/02 10:30:57;;;;;;;;;;;15.40;99.90;;;;;;1976557;72;20122;-74
2022/11/02 10:33:26;;;;;;;;;;;15.50;99.90;;;;;;1968553;72;20144;-73
2022/11/02 10:35:57;;;;;;;;;;;15.40;99.90;;;;;;1972279;72;20157;-74
2022/11/02 10:38:25;;;;;;;;;;;15.50;99.90;;;;;;1973997;72;20352;-73
2022/11/02 10:41:11;;;;;;;;;;;15.50;99.90;;;;;;1966534;72;20121;-73
2022/11/02 10:43:45;;;;;;;;;;;15.40;99.90;;;;;;1969238;72;20334;-75
2022/11/02 10:46:25;;;;;;;;;;;15.30;99.90;;;;;;1970126;72;20117;-75
2022/11/02 10:48:56;;;;;;;;;;;15.50;99.90;;;;;;1971629;72;20142;-74
2022/11/02 10:51:23;;;;;;;;;;;15.70;99.90;;;;;;1967443;72;20122;-76
2022/11/02 10:53:51;;;;;;;;;;;15.60;99.90;;;;;;1968755;72;20317;-74
2022/11/02 10:56:19;;;;;;;;;;;15.60;99.90;;;;;;1966566;72;20328;-73
2022/11/02 10:58:59;;;;;;;;;;;15.70;99.90;;;;;;1967003;72;20229;-74
2022/11/02 11:01:26;;;;;;;;;;;15.80;99.90;;;;;;1970755;72;20118;-74
2022/11/02 11:04:04;;;;;;;;;;;15.90;99.90;;;;;;1968452;72;20160;-74
2022/11/02 11:06:32;;;;;;;;;;;15.70;99.90;;;;;;1970550;72;20341;-75
2022/11/02 11:08:59;;;;;;;;;;;15.70;99.90;;;;;;1978022;72;20330;-74
2022/11/02 11:11:36;;;;;;;;;;;15.70;99.90;;;;;;1975159;72;20377;-74
2022/11/02 11:14:04;;;;;;;;;;;15.60;99.90;;;;;;1968679;72;20161;-74
2022/11/02 11:16:31;;;;;;;;;;;15.50;99.90;;;;;;1971986;72;20372;-73
2022/11/02 11:18:58;;;;;;;;;;;15.50;99.90;;;;;;1970940;72;20147;-75
2022/11/02 11:21:27;;;;;;;;;;;15.50;99.90;;;;;;1969069;72;20165;-73
2022/11/02 11:23:55;;;;;;;;;;;15.50;99.90;;;;;;1971866;72;20192;-73
2022/11/02 11:26:26;;;;;;;;;;;15.40;99.90;;;;;;1967293;72;20337;-73
2022/11/02 11:28:55;;;;;;;;;;;15.40;99.90;;;;;;1973841;72;20105;-75
2022/11/02 11:31:22;;;;;;;;;;;15.40;99.90;;;;;;1968453;72;20120;-75
2022/11/02 11:33:55;;;;;;;;;;;15.50;99.90;;;;;;1968842;72;20148;-75
2022/11/02 11:36:32;;;;;;;;;;;15.50;99.90;;;;;;1974670;72;20342;-72
2022/11/02 11:39:00;;;;;;;;;;;15.50;99.90;;;;;;1976845;72;20110;-73
2022/11/02 11:41:27;;;;;;;;;;;15.50;99.90;;;;;;1967545;72;20108;-73
2022/11/02 11:43:54;;;;;;;;;;;15.60;99.90;;;;;;1977732;72;20156;-72
2022/11/02 11:46:21;;;;;;;;;;;15.60;99.90;;;;;;1970585;72;20114;-74
2022/11/02 11:48:54;;;;;;;;;;;15.70;99.90;;;;;;1971221;72;20158;-74
2022/11/02 11:51:34;;;;;;;;;;;15.70;99.90;;;;;;1972244;72;20102;-73
2022/11/02 11:54:12;;;;;;;;;;;16.00;99.90;;;;;;1977171;72;20176;-73
2022/11/02 11:56:38;;;;;;;;;;;16.30;99.90;;;;;;1970893;72;20110;-74
2022/11/02 11:59:07;;;;;;;;;;;16.80;99.90;;;;;;1969926;72;20240;-74
2022/11/02 12:01:35;;;;;;;;;;;17.30;99.90;;;;;;1974590;72;20118;-74
2022/11/02 12:04:02;;;;;;;;;;;17.70;99.90;;;;;;1969101;72;20184;-72
2022/11/02 12:06:36;;;;;;;;;;;17.80;99.90;;;;;;1971250;72;20121;-72
2022/11/02 12:09:07;;;;;;;;;;;18.10;99.90;;;;;;1967749;72;20117;-72
2022/11/02 12:11:35;;;;;;;;;;;17.70;99.90;;;;;;1967543;72;20190;-73
2022/11/02 12:14:03;;;;;;;;;;;18.40;99.90;;;;;;1977801;72;20130;-74
2022/11/02 12:16:44;;;;;;;;;;;18.40;99.90;;;;;;1967918;72;20113;-74
2022/11/02 12:19:29;;;;;;;;;;;18.10;99.90;;;;;;1970997;72;20199;-74
2022/11/02 12:22:10;;;;;;;;;;;17.90;99.90;;;;;;1966875;72;20152;-73
2022/11/02 12:24:41;;;;;;;;;;;17.80;99.90;;;;;;1960821;72;20119;-74
2022/11/02 12:27:28;;;;;;;;;;;18.20;99.90;;;;;;1968883;72;20113;-74
2022/11/02 12:29:57;;;;;;;;;;;18.10;99.90;;;;;;1967322;72;20113;-73
2022/11/02 12:32:42;;;;;;;;;;;18.20;99.90;;;;;;1970205;72;20106;-72
2022/11/02 12:35:23;;;;;;;;;;;18.50;99.90;;;;;;1970413;72;20106;-73
2022/11/02 12:37:51;;;;;;;;;;;18.70;99.90;;;;;;1964435;72;20340;-72
2022/11/02 12:40:19;;;;;;;;;;;19.30;99.90;;;;;;1971822;72;20214;-72
2022/11/02 12:42:50;;;;;;;;;;;19.80;99.90;;;;;;1970197;72;20116;-73
2022/11/02 12:45:24;;;;;;;;;;;19.50;99.90;;;;;;1966632;72;20368;-73
2022/11/02 12:47:59;;;;;;;;;;;20.10;99.90;;;;;;1968430;72;20148;-72
2022/11/02 12:50:36;;;;;;;;;;;20.20;99.90;;;;;;1978112;72;20322;-73
2022/11/02 12:53:20;;;;;;;;;;;19.40;99.90;;;;;;1973684;72;20121;-72
2022/11/02 12:55:48;;;;;;;;;;;18.20;99.90;;;;;;1974347;72;20179;-74
2022/11/02 12:58:17;;;;;;;;;;;17.90;99.90;;;;;;1974452;72;20168;-73
2022/11/02 13:00:43;;;;;;;;;;;18.60;99.90;;;;;;1971397;72;20112;-72
2022/11/02 13:03:14;;;;;;;;;;;19.50;99.90;;;;;;1969398;72;20114;-72
2022/11/02 13:05:42;;;;;;;;;;;19.30;99.90;;;;;;1971333;72;20125;-73
2022/11/02 13:08:20;;;;;;;;;;;19.30;99.90;;;;;;1972747;72;20117;-72
2022/11/02 13:10:52;;;;;;;;;;;19.50;99.90;;;;;;1968616;72;20106;-73
2022/11/02 13:13:20;;;;;;;;;;;19.00;99.90;;;;;;1972925;72;20113;-74
2022/11/02 13:15:47;;;;;;;;;;;18.70;99.90;;;;;;1968343;72;20539;-73
2022/11/02 13:18:15;;;;;;;;;;;18.60;99.90;;;;;;1976001;72;20118;-73
2022/11/02 13:20:43;;;;;;;;;;;18.40;99.90;;;;;;1977181;72;20147;-73
2022/11/02 13:23:17;;;;;;;;;;;18.10;99.90;;;;;;1975799;72;20117;-72
2022/11/02 13:25:45;;;;;;;;;;;17.80;99.90;;;;;;1969617;72;20114;-74
2022/11/02 13:28:23;;;;;;;;;;;17.80;99.90;;;;;;1970155;72;20254;-75
2022/11/02 13:30:49;;;;;;;;;;;17.90;99.90;;;;;;1968767;72;20117;-74
2022/11/02 13:33:26;;;;;;;;;;;19.00;99.90;;;;;;1971856;72;20186;-73
2022/11/02 13:35:53;;;;;;;;;;;19.70;99.90;;;;;;1971674;72;20123;-73
2022/11/02 13:38:21;;;;;;;;;;;20.30;99.90;;;;;;1967097;72;20120;-74
2022/11/02 13:40:56;;;;;;;;;;;20.10;99.90;;;;;;1937775;72;20330;-74
2022/11/02 13:43:39;;;;;;;;;;;19.80;99.90;;;;;;1969838;72;20117;-74
2022/11/02 13:46:07;;;;;;;;;;;19.50;99.90;;;;;;1963945;72;20121;-73
2022/11/02 13:48:42;;;;;;;;;;;19.00;99.90;;;;;;1966020;72;20185;-73
2022/11/02 13:51:12;;;;;;;;;;;18.80;99.90;;;;;;1915326;72;20191;-73
2022/11/02 13:53:40;;;;;;;;;;;18.40;99.90;;;;;;1975000;72;20121;-74
2022/11/02 13:56:08;;;;;;;;;;;18.60;99.90;;;;;;1964338;72;20148;-73
2022/11/02 13:58:36;;;;;;;;;;;18.60;99.90;;;;;;1979001;72;20117;-74
2022/11/02 14:01:05;;;;;;;;;;;17.90;99.90;;;;;;1962698;72;20149;-73
2022/11/02 14:03:49;;;;;;;;;;;17.50;99.90;;;;;;1971010;72;20163;-73
2022/11/02 14:06:17;;;;;;;;;;;17.70;99.90;;;;;;1975719;72;20102;-73
2022/11/02 14:08:51;;;;;;;;;;;18.40;99.90;;;;;;1971152;72;20116;-73
2022/11/02 14:11:20;;;;;;;;;;;19.10;99.90;;;;;;1962477;72;20114;-74
2022/11/02 14:13:57;;;;;;;;;;;19.10;99.90;;;;;;1971495;72;20252;-72
2022/11/02 14:16:44;;;;;;;;;;;19.40;99.90;;;;;;1970184;72;20117;-72
2022/11/02 14:19:18;;;;;;;;;;;18.90;99.90;;;;;;1960359;72;20119;-75
2022/11/02 14:21:52;;;;;;;;;;;19.30;99.90;;;;;;1962511;72;20117;-74
2022/11/02 14:24:36;;;;;;;;;;;19.00;99.90;;;;;;1969996;72;20125;-72
2022/11/02 14:27:03;;;;;;;;;;;18.90;99.90;;;;;;1975763;72;20125;-74
2022/11/02 14:29:38;;;;;;;;;;;18.80;99.90;;;;;;1969666;72;20371;-72
2022/11/02 14:32:07;;;;;;;;;;;18.70;99.90;;;;;;1945110;72;20119;-74
2022/11/02 14:34:41;;;;;;;;;;;18.20;99.90;;;;;;1949972;72;20102;-74
2022/11/02 14:37:09;;;;;;;;;;;17.80;99.90;;;;;;1924907;72;20102;-74
2022/11/02 14:39:47;;;;;;;;;;;17.70;99.90;;;;;;1973555;72;20171;-73
2022/11/02 14:42:27;;;;;;;;;;;17.90;99.90;;;;;;1968568;72;20121;-72
2022/11/02 14:45:12;;;;;;;;;;;17.80;99.90;;;;;;1909448;72;20163;-74